Time;durP1;ratioP1;P1;durP2;ratioP2;P2;SDS_P1;SDS_P2;PMS_P1;PMS_P2;Temp;Humidity;BMP_temperature;BMP_pressure;BME280_temperature;BME280_humidity;BME280_pressure;Samples;Min_cycle;Max_cycle;Signal;HPM_P1;HPM_P2
2023/02/24 00:00:29;;;;;;;10.50;5.00;;;;;;;;;;4973877;28;20523;-43
2023/02/24 00:02:49;;;;;;;20.05;5.43;;;;;;;;;;4967756;28;20409;-44
2023/02/24 00:05:15;;;;;;;21.43;5.87;;;;;;;;;;4974140;28;20633;-44
2023/02/24 00:07:41;;;;;;;17.60;4.80;;;;;;;;;;4973933;28;20836;-45
2023/02/24 00:10:08;;;;;;;25.57;5.60;;;;;;;;;;4974148;28;20464;-44
2023/02/24 00:12:34;;;;;;;23.08;5.43;;;;;;;;;;4973818;28;20820;-45
2023/02/24 00:15:00;;;;;;;15.67;5.47;;;;;;;;;;4973316;28;20180;-44
2023/02/24 00:17:29;;;;;;;21.10;4.67;;;;;;;;;;4973978;28;20492;-43
2023/02/24 00:19:55;;;;;;;11.20;4.45;;;;;;;;;;4973860;28;20416;-44
2023/02/24 00:22:21;;;;;;;18.73;4.90;;;;;;;;;;4973934;28;20177;-45
2023/02/24 00:24:47;;;;;;;17.57;5.00;;;;;;;;;;4973983;28;20463;-45
2023/02/24 00:27:12;;;;;;;14.13;5.27;;;;;;;;;;4973700;28;20421;-43
2023/02/24 00:29:40;;;;;;;20.30;5.17;;;;;;;;;;4973565;28;20418;-44
2023/02/24 00:32:11;;;;;;;14.23;4.95;;;;;;;;;;4973744;28;20481;-45
2023/02/24 00:34:37;;;;;;;19.48;5.82;;;;;;;;;;4965903;28;20531;-45
2023/02/24 00:37:05;;;;;;;14.75;5.25;;;;;;;;;;4973755;28;20186;-43
2023/02/24 00:39:34;;;;;;;17.63;4.88;;;;;;;;;;4973477;28;20209;-44
2023/02/24 00:42:04;;;;;;;19.00;5.35;;;;;;;;;;4973477;28;20212;-43
2023/02/24 00:44:34;;;;;;;25.80;6.00;;;;;;;;;;4973077;28;20598;-44
2023/02/24 00:47:01;;;;;;;21.85;4.88;;;;;;;;;;4973827;28;20186;-43
2023/02/24 00:49:28;;;;;;;17.92;4.47;;;;;;;;;;4973219;28;20184;-46
2023/02/24 00:51:54;;;;;;;32.85;6.10;;;;;;;;;;4973074;28;20198;-44
2023/02/24 00:54:22;;;;;;;14.55;4.20;;;;;;;;;;4973239;28;20260;-45
2023/02/24 00:56:49;;;;;;;18.65;4.90;;;;;;;;;;4973602;28;20178;-45
2023/02/24 00:59:17;;;;;;;23.67;4.95;;;;;;;;;;4981223;28;20197;-43
2023/02/24 01:01:44;;;;;;;10.80;3.80;;;;;;;;;;4973368;28;20196;-44
2023/02/24 01:04:11;;;;;;;30.63;5.70;;;;;;;;;;4975887;28;20169;-45
2023/02/24 01:06:39;;;;;;;11.30;4.70;;;;;;;;;;4971219;28;20200;-45
2023/02/24 01:09:09;;;;;;;11.10;4.38;;;;;;;;;;4973318;28;20173;-45
2023/02/24 01:14:22;;;;;;;13.70;4.85;;;;;;;;;;4973574;28;20200;-43
2023/02/24 01:16:49;;;;;;;20.25;5.10;;;;;;;;;;4973296;28;20181;-43
2023/02/24 01:19:15;;;;;;;12.05;5.63;;;;;;;;;;4973395;28;20236;-44
2023/02/24 01:21:41;;;;;;;17.45;4.72;;;;;;;;;;4973468;28;20202;-45
2023/02/24 01:24:09;;;;;;;12.18;5.93;;;;;;;;;;4973026;28;20263;-44
2023/02/24 01:26:35;;;;;;;34.00;9.68;;;;;;;;;;4974468;28;20178;-43
2023/02/24 01:29:03;;;;;;;17.80;8.27;;;;;;;;;;4983191;28;20181;-44
2023/02/24 01:31:29;;;;;;;23.33;8.15;;;;;;;;;;4976637;28;20619;-46
2023/02/24 01:33:55;;;;;;;17.02;8.48;;;;;;;;;;4976754;28;20173;-44
2023/02/24 01:36:24;;;;;;;18.10;7.80;;;;;;;;;;4976853;28;20216;-45
2023/02/24 01:38:50;;;;;;;17.27;7.38;;;;;;;;;;4976666;28;20827;-43
2023/02/24 01:41:18;;;;;;;9.13;5.73;;;;;;;;;;4976753;28;20303;-43
2023/02/24 01:44:04;;;;;;;14.93;6.38;;;;;;;;;;4976503;28;20448;-44
2023/02/24 01:46:34;;;;;;;27.15;5.78;;;;;;;;;;4976552;28;20228;-42
2023/02/24 01:49:09;;;;;;;19.02;5.68;;;;;;;;;;4976299;28;20654;-43
2023/02/24 01:51:40;;;;;;;18.30;5.40;;;;;;;;;;4976683;28;20233;-43
2023/02/24 01:54:07;;;;;;;24.73;5.15;;;;;;;;;;4976567;28;20182;-44
2023/02/24 01:56:33;;;;;;;16.65;5.15;;;;;;;;;;4976353;28;20181;-43
2023/02/24 01:59:00;;;;;;;22.33;5.77;;;;;;;;;;4976305;28;20200;-43
2023/02/24 02:01:27;;;;;;;18.98;5.03;;;;;;;;;;4975711;28;20937;-43
2023/02/24 02:03:57;;;;;;;19.58;4.82;;;;;;;;;;4975553;28;20173;-44
2023/02/24 02:06:23;;;;;;;23.77;5.75;;;;;;;;;;4975997;28;20186;-43
2023/02/24 02:08:49;;;;;;;12.43;5.20;;;;;;;;;;4976094;28;20216;-44
2023/02/24 02:11:21;;;;;;;17.33;4.80;;;;;;;;;;4976032;28;20206;-43
2023/02/24 02:13:51;;;;;;;25.23;4.00;;;;;;;;;;4975706;28;20185;-43
2023/02/24 02:16:23;;;;;;;19.27;3.63;;;;;;;;;;4975975;28;20186;-44
2023/02/24 02:18:55;;;;;;;16.58;5.05;;;;;;;;;;4976016;28;20189;-43
2023/02/24 02:21:35;;;;;;;13.52;4.25;;;;;;;;;;4975775;28;20348;-45
2023/02/24 02:24:04;;;;;;;13.82;4.38;;;;;;;;;;4971236;28;20201;-43
2023/02/24 02:26:52;;;;;;;17.70;6.25;;;;;;;;;;4975760;28;20178;-44
2023/02/24 02:29:18;;;;;;;11.88;3.58;;;;;;;;;;4975844;28;20181;-45
2023/02/24 02:31:50;;;;;;;17.77;4.57;;;;;;;;;;4975964;28;20202;-45
2023/02/24 02:34:19;;;;;;;17.83;5.07;;;;;;;;;;4975683;28;20217;-43
2023/02/24 02:36:54;;;;;;;15.80;5.47;;;;;;;;;;4974593;28;20239;-44
2023/02/24 02:39:33;;;;;;;13.95;4.05;;;;;;;;;;4975609;28;20205;-45
2023/02/24 02:42:05;;;;;;;13.85;4.63;;;;;;;;;;4975461;28;20200;-43
2023/02/24 02:44:33;;;;;;;15.82;4.55;;;;;;;;;;4975582;28;20220;-43
2023/02/24 02:47:03;;;;;;;11.48;3.92;;;;;;;;;;4975368;28;20758;-44
2023/02/24 02:49:35;;;;;;;15.73;5.32;;;;;;;;;;4975698;28;20240;-43
2023/02/24 02:52:06;;;;;;;15.82;4.10;;;;;;;;;;4975078;28;20260;-43
2023/02/24 02:54:34;;;;;;;11.95;3.10;;;;;;;;;;4975416;28;20236;-43
2023/02/24 02:57:10;;;;;;;22.02;4.63;;;;;;;;;;4975324;28;20186;-44
2023/02/24 02:59:39;;;;;;;13.23;3.28;;;;;;;;;;4974984;28;20200;-45
2023/02/24 03:02:12;;;;;;;17.88;4.10;;;;;;;;;;4975056;28;20205;-45
2023/02/24 03:04:50;;;;;;;9.02;3.35;;;;;;;;;;4967554;28;20661;-43
2023/02/24 03:07:17;;;;;;;23.77;4.68;;;;;;;;;;4974917;28;20208;-44
2023/02/24 03:09:45;;;;;;;15.40;3.15;;;;;;;;;;4975020;28;20185;-45
2023/02/24 03:12:13;;;;;;;8.35;3.22;;;;;;;;;;4974746;28;20197;-45
2023/02/24 03:14:41;;;;;;;15.13;3.80;;;;;;;;;;4974996;28;20569;-43
2023/02/24 03:17:11;;;;;;;22.58;4.88;;;;;;;;;;4975174;28;20213;-45
2023/02/24 03:19:38;;;;;;;14.68;4.35;;;;;;;;;;4974717;28;20201;-46
2023/02/24 03:22:11;;;;;;;13.23;3.35;;;;;;;;;;4975275;28;20271;-43
2023/02/24 03:24:38;;;;;;;16.10;4.45;;;;;;;;;;4966948;28;20170;-44
2023/02/24 03:27:09;;;;;;;10.95;3.42;;;;;;;;;;4974458;28;20182;-45
2023/02/24 03:29:41;;;;;;;10.38;3.25;;;;;;;;;;4973430;28;20184;-43
2023/02/24 03:32:33;;;;;;;15.65;4.03;;;;;;;;;;4972193;28;20585;-47
2023/02/24 03:35:06;;;;;;;16.65;4.50;;;;;;;;;;4974455;28;20198;-45
2023/02/24 03:37:32;;;;;;;9.73;3.25;;;;;;;;;;4973922;28;20170;-44
2023/02/24 03:39:59;;;;;;;17.67;3.83;;;;;;;;;;4974292;28;20232;-45
2023/02/24 03:42:28;;;;;;;14.48;3.92;;;;;;;;;;4974169;28;20769;-43
2023/02/24 03:44:57;;;;;;;14.63;3.75;;;;;;;;;;4974566;28;20185;-44
2023/02/24 03:47:23;;;;;;;11.07;3.25;;;;;;;;;;4975990;28;20174;-43
2023/02/24 03:49:49;;;;;;;12.57;3.20;;;;;;;;;;4980305;28;20185;-45
2023/02/24 03:52:20;;;;;;;10.30;3.20;;;;;;;;;;4974024;28;20208;-45
2023/02/24 03:55:08;;;;;;;8.55;3.25;;;;;;;;;;4974264;28;20833;-44
2023/02/24 03:57:53;;;;;;;16.02;3.25;;;;;;;;;;4974456;28;20178;-45
2023/02/24 04:00:33;;;;;;;8.52;3.35;;;;;;;;;;4974223;28;20240;-44
2023/02/24 04:03:18;;;;;;;11.15;3.30;;;;;;;;;;4974070;28;20173;-46
2023/02/24 04:05:55;;;;;;;7.00;2.80;;;;;;;;;;4967482;28;20174;-43
2023/02/24 04:08:22;;;;;;;13.20;4.55;;;;;;;;;;4973729;28;20698;-44
2023/02/24 04:10:56;;;;;;;13.52;3.00;;;;;;;;;;4973977;28;20189;-45
2023/02/24 04:13:30;;;;;;;6.05;2.85;;;;;;;;;;4971942;28;20200;-45
2023/02/24 04:16:00;;;;;;;10.82;3.38;;;;;;;;;;4974046;28;20173;-44
2023/02/24 04:18:27;;;;;;;12.68;3.05;;;;;;;;;;4973838;28;20190;-43
2023/02/24 04:20:55;;;;;;;8.18;3.10;;;;;;;;;;4973683;28;20244;-43
2023/02/24 04:23:33;;;;;;;8.30;3.30;;;;;;;;;;4973753;28;20182;-44
2023/02/24 04:26:00;;;;;;;7.97;3.40;;;;;;;;;;4974402;28;20260;-43
2023/02/24 04:28:27;;;;;;;10.30;3.65;;;;;;;;;;4973690;28;20194;-47
2023/02/24 04:30:55;;;;;;;8.05;3.30;;;;;;;;;;4973573;28;20224;-43
2023/02/24 04:33:21;;;;;;;15.23;3.42;;;;;;;;;;4973239;28;20260;-45
2023/02/24 04:35:49;;;;;;;13.18;4.22;;;;;;;;;;4973644;28;20281;-44
2023/02/24 04:38:15;;;;;;;20.30;3.88;;;;;;;;;;4973692;28;20232;-44
2023/02/24 04:40:42;;;;;;;20.98;3.45;;;;;;;;;;4973825;28;20209;-45
2023/02/24 04:43:08;;;;;;;14.73;3.70;;;;;;;;;;4973357;28;20252;-45
2023/02/24 04:45:35;;;;;;;14.90;4.07;;;;;;;;;;4973626;28;20416;-45
2023/02/24 04:48:02;;;;;;;9.95;3.33;;;;;;;;;;4973466;28;20427;-43
2023/02/24 04:50:32;;;;;;;19.50;4.25;;;;;;;;;;4973360;28;20197;-45
2023/02/24 04:53:00;;;;;;;10.82;4.60;;;;;;;;;;4973163;28;20174;-43
2023/02/24 04:55:32;;;;;;;25.38;4.55;;;;;;;;;;4973528;28;20260;-45
2023/02/24 04:58:01;;;;;;;18.20;3.75;;;;;;;;;;4973553;28;20206;-42
2023/02/24 05:00:34;;;;;;;14.60;4.10;;;;;;;;;;4973353;28;20235;-42
2023/02/24 05:03:03;;;;;;;7.97;3.97;;;;;;;;;;4976675;28;20233;-42
2023/02/24 05:05:32;;;;;;;22.67;5.80;;;;;;;;;;4976789;28;20216;-42
2023/02/24 05:08:08;;;;;;;9.10;4.20;;;;;;;;;;4976644;28;20176;-42
2023/02/24 05:10:39;;;;;;;14.55;5.68;;;;;;;;;;4976535;28;20669;-42
2023/02/24 05:13:05;;;;;;;15.13;4.70;;;;;;;;;;4976327;28;20696;-42
2023/02/24 05:15:32;;;;;;;22.40;5.43;;;;;;;;;;4976306;28;20181;-42
2023/02/24 05:17:58;;;;;;;15.13;5.68;;;;;;;;;;4975078;28;20665;-42
2023/02/24 05:23:10;;;;;;;10.65;4.65;;;;;;;;;;4976129;28;20212;-43
2023/02/24 05:25:36;;;;;;;8.00;4.50;;;;;;;;;;4972420;28;20199;-42
2023/02/24 05:28:03;;;;;;;12.60;4.55;;;;;;;;;;4976332;28;20177;-42
2023/02/24 05:30:29;;;;;;;17.58;6.28;;;;;;;;;;4976094;28;20210;-42
2023/02/24 05:32:55;;;;;;;13.87;5.07;;;;;;;;;;4976118;28;20193;-42
2023/02/24 05:35:21;;;;;;;18.00;5.37;;;;;;;;;;4976284;28;20483;-42
2023/02/24 05:37:47;;;;;;;13.25;5.40;;;;;;;;;;4976113;28;20409;-42
2023/02/24 05:40:13;;;;;;;11.40;6.17;;;;;;;;;;4975931;28;20197;-42
2023/02/24 05:42:40;;;;;;;8.90;5.07;;;;;;;;;;4975929;28;20472;-42
2023/02/24 05:45:07;;;;;;;14.85;5.95;;;;;;;;;;4976160;28;20412;-42
2023/02/24 05:47:34;;;;;;;19.88;7.18;;;;;;;;;;4975929;28;20662;-43
2023/02/24 05:50:00;;;;;;;15.82;5.25;;;;;;;;;;4975931;28;20180;-42
2023/02/24 05:52:26;;;;;;;17.60;5.73;;;;;;;;;;4975615;28;20186;-42
2023/02/24 05:54:52;;;;;;;17.00;5.40;;;;;;;;;;4975954;28;20475;-42
2023/02/24 05:57:31;;;;;;;19.73;7.43;;;;;;;;;;4975918;28;20177;-42
2023/02/24 05:59:57;;;;;;;17.05;5.57;;;;;;;;;;4975758;28;20223;-42
2023/02/24 06:02:27;;;;;;;13.13;5.47;;;;;;;;;;4975571;28;20193;-42
2023/02/24 06:04:54;;;;;;;12.13;5.50;;;;;;;;;;4975806;28;20206;-42
2023/02/24 06:07:25;;;;;;;19.92;6.28;;;;;;;;;;4975545;28;20177;-42
2023/02/24 06:09:52;;;;;;;13.48;5.35;;;;;;;;;;4975634;28;20182;-42
2023/02/24 06:12:19;;;;;;;12.40;4.47;;;;;;;;;;4975074;28;20181;-42
2023/02/24 06:14:45;;;;;;;8.57;4.13;;;;;;;;;;4975636;28;20193;-42
2023/02/24 06:17:11;;;;;;;9.93;4.70;;;;;;;;;;4975463;28;20181;-42
2023/02/24 06:19:38;;;;;;;13.53;6.00;;;;;;;;;;4975253;28;20555;-43
2023/02/24 06:22:09;;;;;;;8.98;4.60;;;;;;;;;;4975458;28;20433;-42
2023/02/24 06:24:35;;;;;;;15.90;5.32;;;;;;;;;;4975430;28;20173;-42
2023/02/24 06:27:08;;;;;;;14.83;4.80;;;;;;;;;;4975377;28;20178;-42
2023/02/24 06:29:35;;;;;;;18.85;4.65;;;;;;;;;;4975302;28;20800;-42
2023/02/24 06:32:07;;;;;;;12.80;3.90;;;;;;;;;;4975026;28;20190;-42
2023/02/24 06:34:33;;;;;;;16.58;4.70;;;;;;;;;;4975391;28;20185;-42
2023/02/24 06:36:59;;;;;;;14.48;5.63;;;;;;;;;;4975276;28;20193;-42
2023/02/24 06:39:25;;;;;;;10.43;3.90;;;;;;;;;;4975113;28;20201;-42
2023/02/24 06:41:51;;;;;;;9.07;3.57;;;;;;;;;;4975015;28;20421;-42
2023/02/24 06:44:17;;;;;;;17.30;4.30;;;;;;;;;;4974792;28;20409;-42
2023/02/24 06:46:45;;;;;;;8.40;3.45;;;;;;;;;;4974919;28;20181;-42
2023/02/24 06:49:11;;;;;;;9.02;3.30;;;;;;;;;;4974896;28;20584;-42
2023/02/24 06:51:37;;;;;;;5.80;3.10;;;;;;;;;;4966956;28;20200;-42
2023/02/24 06:54:05;;;;;;;13.57;5.00;;;;;;;;;;4974634;28;20236;-42
2023/02/24 06:56:37;;;;;;;9.25;3.80;;;;;;;;;;4974781;28;20181;-42
2023/02/24 06:59:05;;;;;;;9.98;3.80;;;;;;;;;;4974711;28;20236;-42
2023/02/24 07:01:33;;;;;;;11.68;4.40;;;;;;;;;;4974521;28;20190;-42
2023/02/24 07:06:39;;;;;;;8.85;4.07;;;;;;;;;;4972336;28;20185;-42
2023/02/24 07:09:07;;;;;;;23.00;7.45;;;;;;;;;;4974553;28;20181;-42
2023/02/24 07:11:34;;;;;;;16.48;4.78;;;;;;;;;;4974350;28;20238;-42
2023/02/24 07:14:01;;;;;;;11.77;4.47;;;;;;;;;;4974176;28;20665;-42
2023/02/24 07:16:27;;;;;;;7.97;4.60;;;;;;;;;;4973809;28;20177;-42
2023/02/24 07:18:57;;;;;;;23.75;5.30;;;;;;;;;;4973523;28;20212;-42
2023/02/24 07:21:24;;;;;;;15.57;5.50;;;;;;;;;;4973639;28;20190;-41
2023/02/24 07:23:55;;;;;;;9.20;5.43;;;;;;;;;;4972855;28;20252;-42
2023/02/24 07:26:22;;;;;;;12.25;5.95;;;;;;;;;;4973575;28;20225;-42
2023/02/24 07:28:49;;;;;;;16.23;6.78;;;;;;;;;;4973433;28;20181;-42
2023/02/24 07:31:20;;;;;;;15.52;5.05;;;;;;;;;;4973386;28;20212;-42
2023/02/24 07:33:46;;;;;;;14.73;4.90;;;;;;;;;;4973242;28;20204;-42
2023/02/24 07:36:14;;;;;;;10.90;5.80;;;;;;;;;;4973548;28;20177;-42
2023/02/24 07:38:41;;;;;;;15.90;5.22;;;;;;;;;;4973679;28;20620;-42
2023/02/24 07:41:11;;;;;;;14.90;4.47;;;;;;;;;;4974050;28;20204;-42
2023/02/24 07:43:38;;;;;;;10.05;5.95;;;;;;;;;;4970017;28;20184;-42
2023/02/24 07:46:05;;;;;;;10.02;5.55;;;;;;;;;;4974416;28;20174;-42
2023/02/24 07:48:31;;;;;;;12.07;4.50;;;;;;;;;;4974212;28;20205;-42
2023/02/24 07:50:58;;;;;;;10.73;4.43;;;;;;;;;;4973743;28;20194;-42
2023/02/24 07:53:26;;;;;;;14.25;5.00;;;;;;;;;;4973212;28;20500;-42
2023/02/24 07:55:53;;;;;;;12.27;4.10;;;;;;;;;;4973690;28;20253;-42
2023/02/24 07:58:19;;;;;;;15.80;4.78;;;;;;;;;;4973470;28;20212;-42
2023/02/24 08:00:58;;;;;;;12.32;3.97;;;;;;;;;;4972834;28;20221;-42
2023/02/24 08:03:24;;;;;;;15.52;4.57;;;;;;;;;;4972832;28;20543;-42
2023/02/24 08:05:52;;;;;;;6.97;4.30;;;;;;;;;;4972422;28;20260;-42
2023/02/24 08:08:19;;;;;;;12.20;4.05;;;;;;;;;;4972537;28;20413;-42
2023/02/24 08:10:46;;;;;;;19.13;4.40;;;;;;;;;;4973351;28;20692;-41
2023/02/24 08:13:12;;;;;;;10.85;4.70;;;;;;;;;;4972945;28;20204;-42
2023/02/24 08:15:38;;;;;;;12.32;3.30;;;;;;;;;;4973416;28;20178;-42
2023/02/24 08:18:04;;;;;;;14.27;4.40;;;;;;;;;;4973271;28;20251;-42
2023/02/24 08:23:17;;;;;;;10.38;3.20;;;;;;;;;;4973153;28;20388;-42
2023/02/24 08:25:43;;;;;;;8.13;3.55;;;;;;;;;;4973325;28;20661;-42
2023/02/24 08:28:10;;;;;;;14.60;4.27;;;;;;;;;;4973156;28;20264;-42
2023/02/24 08:30:37;;;;;;;12.15;4.30;;;;;;;;;;4964947;28;20503;-42
2023/02/24 08:33:04;;;;;;;13.82;4.00;;;;;;;;;;4972794;28;20581;-42
2023/02/24 08:35:31;;;;;;;17.92;4.03;;;;;;;;;;4972214;28;20216;-42
2023/02/24 08:38:06;;;;;;;9.88;3.90;;;;;;;;;;4972996;28;20190;-42
2023/02/24 08:43:14;;;;;;;12.13;4.00;;;;;;;;;;4972815;28;20717;-42
2023/02/24 08:45:43;;;;;;;28.92;4.50;;;;;;;;;;4965568;28;20243;-42
2023/02/24 08:48:17;;;;;;;14.13;4.65;;;;;;;;;;4972916;28;20549;-42
2023/02/24 08:50:44;;;;;;;8.98;3.85;;;;;;;;;;4965727;28;20201;-42
2023/02/24 08:53:14;;;;;;;10.15;5.25;;;;;;;;;;4972674;28;20174;-42
2023/02/24 08:55:41;;;;;;;8.57;3.70;;;;;;;;;;4972751;28;20177;-42
2023/02/24 08:58:09;;;;;;;8.43;3.53;;;;;;;;;;4971491;28;20887;-42
2023/02/24 09:00:48;;;;;;;16.00;4.63;;;;;;;;;;4971302;28;20201;-45
2023/02/24 09:03:28;;;;;;;19.45;4.75;;;;;;;;;;4975836;28;20664;-41
2023/02/24 09:05:57;;;;;;;9.32;4.78;;;;;;;;;;4976816;28;20272;-43
2023/02/24 09:08:23;;;;;;;13.93;5.25;;;;;;;;;;4977069;28;20177;-40
2023/02/24 09:10:54;;;;;;;11.43;5.60;;;;;;;;;;4975248;28;20701;-42
2023/02/24 09:13:20;;;;;;;9.57;5.07;;;;;;;;;;4974767;28;20197;-41
2023/02/24 09:15:47;;;;;;;13.38;5.53;;;;;;;;;;4970758;28;20177;-41
2023/02/24 09:18:13;;;;;;;13.63;5.60;;;;;;;;;;4975907;28;20255;-40
2023/02/24 09:23:44;;;;;;;6.57;4.30;;;;;;;;;;4972027;28;20590;-40
2023/02/24 09:26:12;;;;;;;11.68;5.00;;;;;;;;;;4971505;28;20170;-41
2023/02/24 09:31:15;;;;;;;16.23;5.50;;;;;;;;;;5613836;23;20358;-46
2023/02/24 09:33:49;;;;;;;10.30;6.53;;;;;;;;;;5017336;28;20216;-46
2023/02/24 09:36:19;;;;;;;14.52;5.13;;;;;;;;;;5012005;28;20284;-46
2023/02/24 09:41:30;;;;;;;7.53;4.53;;;;;;;;;;5001272;28;20686;-45
2023/02/24 09:44:02;;;;;;;13.10;4.45;;;;;;;;;;4990852;28;20192;-44
2023/02/24 09:46:29;;;;;;;13.27;4.10;;;;;;;;;;4993612;28;20173;-46
2023/02/24 09:49:04;;;;;;;10.15;4.57;;;;;;;;;;4996029;28;20185;-46
2023/02/24 09:51:41;;;;;;;8.18;4.22;;;;;;;;;;4995349;28;20279;-46
2023/02/24 09:54:29;;;;;;;8.95;3.85;;;;;;;;;;4993522;28;20247;-45
2023/02/24 09:57:07;;;;;;;8.90;4.00;;;;;;;;;;4995600;28;20183;-42
2023/02/24 09:59:33;;;;;;;7.60;5.30;;;;;;;;;;4995014;28;20196;-43
2023/02/24 10:02:01;;;;;;;9.57;3.55;;;;;;;;;;4993715;28;20197;-43
2023/02/24 10:04:47;;;;;;;8.45;4.30;;;;;;;;;;4995101;28;20161;-43
2023/02/24 10:07:19;;;;;;;14.48;3.80;;;;;;;;;;4987906;28;20212;-43
2023/02/24 10:10:18;;;;;;;9.13;4.60;;;;;;;;;;4994832;28;20173;-42
2023/02/24 10:12:44;;;;;;;8.57;3.90;;;;;;;;;;4994886;28;20534;-43
2023/02/24 10:15:19;;;;;;;20.70;4.28;;;;;;;;;;4994864;28;20177;-43
2023/02/24 10:17:56;;;;;;;11.13;3.72;;;;;;;;;;4995047;28;20174;-44
2023/02/24 10:20:38;;;;;;;18.48;4.00;;;;;;;;;;4987904;28;20235;-42
2023/02/24 10:23:31;;;;;;;6.75;3.80;;;;;;;;;;4993531;28;20185;-42
2023/02/24 10:26:33;;;;;;;4.88;3.25;;;;;;;;;;4993113;28;20169;-42
2023/02/24 10:29:21;;;;;;;13.38;6.20;;;;;;;;;;4990188;28;20220;-42
2023/02/24 10:31:56;;;;;;;19.67;3.85;;;;;;;;;;4991138;28;20376;-44
2023/02/24 10:34:30;;;;;;;8.05;3.60;;;;;;;;;;4987560;28;20184;-46
2023/02/24 10:36:56;;;;;;;8.82;3.30;;;;;;;;;;4995249;28;20507;-42
2023/02/24 10:39:29;;;;;;;8.30;3.40;;;;;;;;;;4994348;28;20196;-42
2023/02/24 10:42:14;;;;;;;10.07;3.72;;;;;;;;;;4993603;28;20428;-44
2023/02/24 10:44:50;;;;;;;11.25;3.60;;;;;;;;;;4994459;28;20180;-44
2023/02/24 10:47:16;;;;;;;11.43;3.65;;;;;;;;;;4988413;28;20254;-47
2023/02/24 10:49:49;;;;;;;22.40;4.03;;;;;;;;;;4995258;28;20179;-45
2023/02/24 10:52:32;;;;;;;9.07;3.72;;;;;;;;;;4994516;28;20197;-46
2023/02/24 10:55:23;;;;;;;11.35;3.60;;;;;;;;;;4993928;28;20212;-47
2023/02/24 10:57:54;;;;;;;11.23;3.55;;;;;;;;;;4993930;28;20169;-46
2023/02/24 11:01:11;;;;;;;10.95;3.53;;;;;;;;;;4994092;28;21258;-44
2023/02/24 11:03:13;;;;;;;9.73;3.58;;;;;;;;;;4986784;28;20185;-42
2023/02/24 11:05:55;;;;;;;14.95;3.83;;;;;;;;;;4994138;28;20165;-43
2023/02/24 11:08:53;;;;;;;7.28;2.70;;;;;;;;;;4987061;28;20169;-46
2023/02/24 11:17:13;;;;;;;7.32;2.60;;;;;;;;;;4987557;28;20204;-46
2023/02/24 11:17:15;;;;;;;6.95;2.58;;;;;;;;;;4993904;28;20184;-42
2023/02/24 11:19:41;;;;;;;10.57;3.17;;;;;;;;;;4993594;28;20287;-42
2023/02/24 11:22:07;;;;;;;13.73;3.37;;;;;;;;;;4992836;28;21082;-42
2023/02/24 11:24:36;;;;;;;10.80;2.92;;;;;;;;;;4993707;28;20412;-43
2023/02/24 11:27:02;;;;;;;20.70;3.40;;;;;;;;;;4993566;28;20177;-42
2023/02/24 11:29:43;;;;;;;10.57;2.97;;;;;;;;;;4993614;28;20805;-42
2023/02/24 11:32:12;;;;;;;8.93;2.78;;;;;;;;;;4984018;28;20204;-44
2023/02/24 11:34:38;;;;;;;5.80;3.00;;;;;;;;;;4993306;28;20235;-42
2023/02/24 11:37:13;;;;;;;17.50;4.53;;;;;;;;;;4993713;28;20181;-43
2023/02/24 11:39:49;;;;;;;8.30;3.80;;;;;;;;;;4993196;28;20455;-43
2023/02/24 11:42:18;;;;;;;7.00;3.45;;;;;;;;;;4985364;28;20695;-44
2023/02/24 11:44:45;;;;;;;13.20;4.15;;;;;;;;;;4993174;28;20544;-43
2023/02/24 11:47:14;;;;;;;11.05;4.45;;;;;;;;;;4996733;28;20659;-43
2023/02/24 11:49:42;;;;;;;8.10;4.18;;;;;;;;;;4993462;28;20569;-43
2023/02/24 11:52:20;;;;;;;13.45;4.25;;;;;;;;;;4992140;28;20212;-43
2023/02/24 11:54:51;;;;;;;23.38;8.73;;;;;;;;;;4992987;28;20251;-43
2023/02/24 11:57:28;;;;;;;12.48;4.90;;;;;;;;;;4992934;28;20230;-44
2023/02/24 12:00:03;;;;;;;17.90;5.20;;;;;;;;;;4993132;28;20318;-43
2023/02/24 12:02:42;;;;;;;13.75;5.43;;;;;;;;;;4992496;28;20275;-43
2023/02/24 12:05:16;;;;;;;14.30;5.78;;;;;;;;;;4985005;28;20168;-44
2023/02/24 12:07:43;;;;;;;8.18;4.57;;;;;;;;;;4992837;28;20184;-44
2023/02/24 12:10:09;;;;;;;14.13;5.65;;;;;;;;;;4984124;28;20219;-44
2023/02/24 12:12:39;;;;;;;11.47;5.57;;;;;;;;;;4992726;28;20220;-44
2023/02/24 12:15:10;;;;;;;9.40;5.68;;;;;;;;;;4992849;28;20404;-44
2023/02/24 12:17:40;;;;;;;8.93;4.78;;;;;;;;;;4992806;28;20550;-44
2023/02/24 12:20:18;;;;;;;9.02;5.78;;;;;;;;;;4992000;28;20200;-44
2023/02/24 12:23:04;;;;;;;14.23;5.68;;;;;;;;;;4991128;28;20185;-44
2023/02/24 12:25:35;;;;;;;8.95;6.05;;;;;;;;;;4992837;28;20172;-44
2023/02/24 12:28:20;;;;;;;14.70;6.68;;;;;;;;;;4992421;28;20664;-44
2023/02/24 12:30:56;;;;;;;16.65;7.47;;;;;;;;;;4990635;28;20199;-44
2023/02/24 12:33:23;;;;;;;9.35;6.47;;;;;;;;;;4992361;28;20184;-43
2023/02/24 12:35:52;;;;;;;12.32;7.45;;;;;;;;;;4987285;28;20661;-44
2023/02/24 12:38:18;;;;;;;12.30;7.05;;;;;;;;;;4992304;28;20589;-45
2023/02/24 12:40:50;;;;;;;13.43;7.87;;;;;;;;;;4991589;28;20185;-42
2023/02/24 12:43:18;;;;;;;15.00;7.78;;;;;;;;;;4984161;28;20412;-42
2023/02/24 12:45:45;;;;;;;13.95;7.90;;;;;;;;;;4991107;28;20177;-42
2023/02/24 12:48:16;;;;;;;11.25;8.43;;;;;;;;;;4990782;28;20227;-42
2023/02/24 12:50:54;;;;;;;17.40;7.22;;;;;;;;;;4989637;28;20199;-42
2023/02/24 12:53:53;;;;;;;14.57;7.85;;;;;;;;;;4991034;28;20588;-44
2023/02/24 12:56:28;;;;;;;17.70;9.77;;;;;;;;;;4990773;28;20233;-44
2023/02/24 12:58:58;;;;;;;12.02;7.88;;;;;;;;;;4990881;28;20247;-44
2023/02/24 13:01:33;;;;;;;12.93;8.07;;;;;;;;;;4989574;28;20204;-45
2023/02/24 13:04:02;;;;;;;17.92;8.27;;;;;;;;;;4992214;28;20259;-45
2023/02/24 13:06:58;;;;;;;11.77;7.90;;;;;;;;;;4990697;28;20203;-45
2023/02/24 13:09:30;;;;;;;11.15;6.88;;;;;;;;;;4989421;28;20187;-45
2023/02/24 13:12:08;;;;;;;12.25;7.35;;;;;;;;;;4991613;28;20717;-45
2023/02/24 13:14:35;;;;;;;11.68;6.57;;;;;;;;;;4992833;28;20259;-45
2023/02/24 13:17:10;;;;;;;24.73;7.07;;;;;;;;;;4989567;28;20940;-46
2023/02/24 13:19:36;;;;;;;13.75;6.50;;;;;;;;;;4992364;28;20200;-45
2023/02/24 13:22:05;;;;;;;8.45;5.32;;;;;;;;;;4994266;28;20208;-45
2023/02/24 13:24:31;;;;;;;32.88;8.70;;;;;;;;;;4996943;28;20185;-46
2023/02/24 13:27:04;;;;;;;14.38;6.60;;;;;;;;;;4997517;28;20663;-46
2023/02/24 13:29:30;;;;;;;11.63;6.13;;;;;;;;;;4996875;28;20177;-44
2023/02/24 13:31:56;;;;;;;9.87;6.17;;;;;;;;;;4996026;28;20250;-45
2023/02/24 13:34:25;;;;;;;8.82;6.80;;;;;;;;;;4996804;28;20822;-45
2023/02/24 13:36:51;;;;;;;12.02;6.85;;;;;;;;;;4997285;28;20184;-45
2023/02/24 13:39:21;;;;;;;11.80;6.22;;;;;;;;;;4996833;28;20688;-45
2023/02/24 13:41:47;;;;;;;10.23;5.68;;;;;;;;;;4995893;28;20827;-44
2023/02/24 13:44:19;;;;;;;12.30;7.47;;;;;;;;;;4997544;28;20212;-44
2023/02/24 13:46:54;;;;;;;8.85;6.57;;;;;;;;;;4996878;28;20420;-44
2023/02/24 13:49:39;;;;;;;10.57;7.18;;;;;;;;;;4997071;28;20674;-48
2023/02/24 13:52:08;;;;;;;12.60;7.05;;;;;;;;;;4996088;28;20214;-47
2023/02/24 13:54:42;;;;;;;9.95;6.85;;;;;;;;;;4996705;28;20177;-45
2023/02/24 13:57:11;;;;;;;16.17;7.28;;;;;;;;;;4989135;28;20176;-45
2023/02/24 13:59:41;;;;;;;13.45;7.68;;;;;;;;;;4996853;28;20783;-45
2023/02/24 14:02:10;;;;;;;10.90;8.40;;;;;;;;;;4995571;28;20184;-45
2023/02/24 14:04:38;;;;;;;14.00;8.73;;;;;;;;;;4996389;28;20180;-45
2023/02/24 14:07:18;;;;;;;9.38;7.75;;;;;;;;;;4996226;28;20666;-46
2023/02/24 14:09:46;;;;;;;16.42;8.93;;;;;;;;;;4995395;28;20218;-44
2023/02/24 14:12:17;;;;;;;15.00;9.25;;;;;;;;;;4994088;28;20204;-43
2023/02/24 14:14:44;;;;;;;14.30;10.80;;;;;;;;;;4994930;28;20179;-42
2023/02/24 14:17:24;;;;;;;20.30;11.23;;;;;;;;;;4994859;28;20223;-45
2023/02/24 14:19:50;;;;;;;18.08;10.55;;;;;;;;;;4994234;28;20215;-45
2023/02/24 14:22:19;;;;;;;12.90;9.40;;;;;;;;;;4994202;28;20189;-42
2023/02/24 14:24:46;;;;;;;15.52;10.57;;;;;;;;;;4994598;28;20459;-42
2023/02/24 14:27:30;;;;;;;22.02;11.05;;;;;;;;;;4994852;28;20641;-42
2023/02/24 14:29:56;;;;;;;18.92;10.35;;;;;;;;;;4992688;28;20180;-42
2023/02/24 14:32:23;;;;;;;15.35;10.02;;;;;;;;;;4992320;28;20239;-44
2023/02/24 14:34:50;;;;;;;13.82;9.48;;;;;;;;;;4991405;28;20196;-44
2023/02/24 14:37:16;;;;;;;26.63;10.15;;;;;;;;;;4994467;28;20185;-43
2023/02/24 14:39:52;;;;;;;12.77;9.57;;;;;;;;;;4994353;28;20312;-44
2023/02/24 14:42:19;;;;;;;18.23;9.40;;;;;;;;;;4987771;28;20192;-45
2023/02/24 14:44:52;;;;;;;18.73;9.32;;;;;;;;;;4994553;28;20184;-45
2023/02/24 14:47:20;;;;;;;18.17;9.07;;;;;;;;;;4995242;28;20555;-45
2023/02/24 14:49:57;;;;;;;17.80;8.90;;;;;;;;;;4994223;28;20254;-44
2023/02/24 14:52:23;;;;;;;17.50;10.30;;;;;;;;;;4993562;28;20564;-44
2023/02/24 14:54:53;;;;;;;15.07;10.00;;;;;;;;;;4994075;28;20188;-44
2023/02/24 14:57:27;;;;;;;23.60;10.88;;;;;;;;;;4994333;28;20419;-43
2023/02/24 15:00:11;;;;;;;14.00;10.18;;;;;;;;;;4993867;28;20197;-44
2023/02/24 15:02:40;;;;;;;18.08;11.00;;;;;;;;;;4994049;28;20663;-44
2023/02/24 15:05:08;;;;;;;25.13;12.30;;;;;;;;;;4993762;28;20184;-44
2023/02/24 15:07:34;;;;;;;15.77;10.65;;;;;;;;;;4992777;28;20652;-44
2023/02/24 15:10:00;;;;;;;18.50;12.77;;;;;;;;;;4993809;28;20273;-44
2023/02/24 15:12:29;;;;;;;25.52;16.15;;;;;;;;;;4993420;28;20193;-44
2023/02/24 15:15:00;;;;;;;23.38;14.18;;;;;;;;;;4993904;28;20204;-44